sensor_id;sensor_type;location;lat;lon;timestamp;P1;durP1;ratioP1;P2;durP2;ratioP2
16543;SDS011;8384;47.996;7.786;2022-11-20T00:01:10;4.63;;;3.53;;
16543;SDS011;8384;47.996;7.786;2022-11-20T00:03:35;3.90;;;3.50;;
16543;SDS011;8384;47.996;7.786;2022-11-20T00:06:02;4.60;;;3.30;;
16543;SDS011;8384;47.996;7.786;2022-11-20T00:08:31;5.63;;;3.43;;
16543;SDS011;8384;47.996;7.786;2022-11-20T00:10:57;3.60;;;3.13;;
16543;SDS011;8384;47.996;7.786;2022-11-20T00:13:27;6.63;;;3.70;;
16543;SDS011;8384;47.996;7.786;2022-11-20T00:15:56;3.73;;;3.40;;
16543;SDS011;8384;47.996;7.786;2022-11-20T00:18:23;3.70;;;3.20;;
16543;SDS011;8384;47.996;7.786;2022-11-20T00:20:48;3.70;;;3.40;;
16543;SDS011;8384;47.996;7.786;2022-11-20T00:23:14;3.90;;;3.60;;
16543;SDS011;8384;47.996;7.786;2022-11-20T00:25:39;6.07;;;3.60;;
16543;SDS011;8384;47.996;7.786;2022-11-20T00:28:04;4.70;;;3.23;;
16543;SDS011;8384;47.996;7.786;2022-11-20T00:30:29;4.70;;;3.33;;
16543;SDS011;8384;47.996;7.786;2022-11-20T00:32:56;4.20;;;3.73;;
16543;SDS011;8384;47.996;7.786;2022-11-20T00:35:21;4.50;;;3.87;;
16543;SDS011;8384;47.996;7.786;2022-11-20T00:37:46;6.30;;;4.10;;
16543;SDS011;8384;47.996;7.786;2022-11-20T00:40:12;4.40;;;4.00;;
16543;SDS011;8384;47.996;7.786;2022-11-20T00:42:37;5.20;;;3.70;;
16543;SDS011;8384;47.996;7.786;2022-11-20T00:45:03;4.13;;;3.73;;
16543;SDS011;8384;47.996;7.786;2022-11-20T00:47:28;5.03;;;4.20;;
16543;SDS011;8384;47.996;7.786;2022-11-20T00:49:53;4.30;;;3.90;;
16543;SDS011;8384;47.996;7.786;2022-11-20T00:52:19;6.37;;;4.13;;
16543;SDS011;8384;47.996;7.786;2022-11-20T00:54:44;4.97;;;4.47;;
16543;SDS011;8384;47.996;7.786;2022-11-20T00:57:09;6.50;;;3.80;;
16543;SDS011;8384;47.996;7.786;2022-11-20T00:59:34;5.03;;;4.17;;
16543;SDS011;8384;47.996;7.786;2022-11-20T01:02:00;6.63;;;4.80;;
16543;SDS011;8384;47.996;7.786;2022-11-20T01:04:25;4.40;;;4.00;;
16543;SDS011;8384;47.996;7.786;2022-11-20T01:06:50;5.27;;;4.60;;
16543;SDS011;8384;47.996;7.786;2022-11-20T01:09:15;7.80;;;4.40;;
16543;SDS011;8384;47.996;7.786;2022-11-20T01:11:42;4.60;;;4.20;;
16543;SDS011;8384;47.996;7.786;2022-11-20T01:14:13;5.33;;;4.73;;
16543;SDS011;8384;47.996;7.786;2022-11-20T01:16:41;5.40;;;4.90;;
16543;SDS011;8384;47.996;7.786;2022-11-20T01:19:12;5.00;;;4.27;;
16543;SDS011;8384;47.996;7.786;2022-11-20T01:21:40;4.97;;;4.47;;
16543;SDS011;8384;47.996;7.786;2022-11-20T01:24:08;5.23;;;4.73;;
16543;SDS011;8384;47.996;7.786;2022-11-20T01:26:37;5.70;;;4.70;;
16543;SDS011;8384;47.996;7.786;2022-11-20T01:29:03;5.57;;;4.70;;
16543;SDS011;8384;47.996;7.786;2022-11-20T01:31:30;5.60;;;4.97;;
16543;SDS011;8384;47.996;7.786;2022-11-20T01:33:58;6.97;;;5.00;;
16543;SDS011;8384;47.996;7.786;2022-11-20T01:36:26;5.87;;;4.50;;
16543;SDS011;8384;47.996;7.786;2022-11-20T01:38:53;6.57;;;4.87;;
16543;SDS011;8384;47.996;7.786;2022-11-20T01:41:22;5.60;;;4.47;;
16543;SDS011;8384;47.996;7.786;2022-11-20T01:44:09;5.80;;;4.83;;
16543;SDS011;8384;47.996;7.786;2022-11-20T01:46:38;5.07;;;4.57;;
16543;SDS011;8384;47.996;7.786;2022-11-20T01:51:47;5.60;;;4.20;;
16543;SDS011;8384;47.996;7.786;2022-11-20T01:54:19;4.57;;;3.60;;
16543;SDS011;8384;47.996;7.786;2022-11-20T01:56:50;5.33;;;4.03;;
16543;SDS011;8384;47.996;7.786;2022-11-20T01:59:19;6.50;;;4.17;;
16543;SDS011;8384;47.996;7.786;2022-11-20T02:01:46;5.50;;;4.20;;
16543;SDS011;8384;47.996;7.786;2022-11-20T02:04:11;4.43;;;3.80;;
16543;SDS011;8384;47.996;7.786;2022-11-20T02:06:40;4.43;;;3.30;;
16543;SDS011;8384;47.996;7.786;2022-11-20T02:09:09;6.77;;;3.60;;
16543;SDS011;8384;47.996;7.786;2022-11-20T02:11:34;4.90;;;3.77;;
16543;SDS011;8384;47.996;7.786;2022-11-20T02:13:59;4.90;;;3.57;;
16543;SDS011;8384;47.996;7.786;2022-11-20T02:16:26;4.90;;;3.60;;
16543;SDS011;8384;47.996;7.786;2022-11-20T02:18:54;6.10;;;3.73;;
16543;SDS011;8384;47.996;7.786;2022-11-20T02:24:18;5.60;;;3.33;;
16543;SDS011;8384;47.996;7.786;2022-11-20T02:26:49;4.80;;;3.50;;
16543;SDS011;8384;47.996;7.786;2022-11-20T02:29:37;3.63;;;3.17;;
16543;SDS011;8384;47.996;7.786;2022-11-20T02:32:05;3.77;;;3.47;;
16543;SDS011;8384;47.996;7.786;2022-11-20T02:34:31;4.30;;;3.57;;
16543;SDS011;8384;47.996;7.786;2022-11-20T02:36:57;3.53;;;3.17;;
16543;SDS011;8384;47.996;7.786;2022-11-20T02:39:24;3.63;;;3.27;;
16543;SDS011;8384;47.996;7.786;2022-11-20T02:41:52;5.97;;;3.37;;
16543;SDS011;8384;47.996;7.786;2022-11-20T02:44:19;3.90;;;3.33;;
16543;SDS011;8384;47.996;7.786;2022-11-20T02:46:45;3.93;;;3.40;;
16543;SDS011;8384;47.996;7.786;2022-11-20T02:49:10;4.63;;;3.33;;
16543;SDS011;8384;47.996;7.786;2022-11-20T02:51:36;4.23;;;3.67;;
16543;SDS011;8384;47.996;7.786;2022-11-20T02:54:01;5.20;;;3.70;;
16543;SDS011;8384;47.996;7.786;2022-11-20T02:56:26;4.80;;;3.37;;
16543;SDS011;8384;47.996;7.786;2022-11-20T02:58:52;5.10;;;3.43;;
16543;SDS011;8384;47.996;7.786;2022-11-20T03:01:17;3.47;;;3.10;;
16543;SDS011;8384;47.996;7.786;2022-11-20T03:03:42;3.67;;;3.27;;
16543;SDS011;8384;47.996;7.786;2022-11-20T03:06:08;5.40;;;3.60;;
16543;SDS011;8384;47.996;7.786;2022-11-20T03:08:33;4.57;;;3.30;;
16543;SDS011;8384;47.996;7.786;2022-11-20T03:11:02;4.03;;;3.50;;
16543;SDS011;8384;47.996;7.786;2022-11-20T03:13:29;6.57;;;4.33;;
16543;SDS011;8384;47.996;7.786;2022-11-20T03:15:54;4.00;;;3.53;;
16543;SDS011;8384;47.996;7.786;2022-11-20T03:18:19;3.67;;;3.30;;
16543;SDS011;8384;47.996;7.786;2022-11-20T03:20:44;6.17;;;3.97;;
16543;SDS011;8384;47.996;7.786;2022-11-20T03:23:10;6.97;;;4.27;;
16543;SDS011;8384;47.996;7.786;2022-11-20T03:25:35;4.43;;;3.73;;
16543;SDS011;8384;47.996;7.786;2022-11-20T03:28:00;5.00;;;4.00;;
16543;SDS011;8384;47.996;7.786;2022-11-20T03:30:26;4.47;;;4.00;;
16543;SDS011;8384;47.996;7.786;2022-11-20T03:32:52;5.03;;;4.20;;
16543;SDS011;8384;47.996;7.786;2022-11-20T03:35:18;5.27;;;4.10;;
16543;SDS011;8384;47.996;7.786;2022-11-20T03:37:44;4.23;;;3.83;;
16543;SDS011;8384;47.996;7.786;2022-11-20T03:40:10;3.87;;;3.43;;
16543;SDS011;8384;47.996;7.786;2022-11-20T03:42:36;6.87;;;4.17;;
16543;SDS011;8384;47.996;7.786;2022-11-20T03:45:15;4.30;;;3.87;;
16543;SDS011;8384;47.996;7.786;2022-11-20T03:47:41;5.37;;;4.00;;
16543;SDS011;8384;47.996;7.786;2022-11-20T03:50:06;5.93;;;4.27;;
16543;SDS011;8384;47.996;7.786;2022-11-20T03:52:33;5.03;;;3.93;;
16543;SDS011;8384;47.996;7.786;2022-11-20T03:54:58;3.97;;;3.27;;
16543;SDS011;8384;47.996;7.786;2022-11-20T03:57:23;5.10;;;3.57;;
16543;SDS011;8384;47.996;7.786;2022-11-20T03:59:49;4.60;;;4.17;;
16543;SDS011;8384;47.996;7.786;2022-11-20T04:02:14;5.33;;;4.13;;
16543;SDS011;8384;47.996;7.786;2022-11-20T04:04:39;6.90;;;4.27;;
16543;SDS011;8384;47.996;7.786;2022-11-20T04:07:05;4.57;;;3.90;;
16543;SDS011;8384;47.996;7.786;2022-11-20T04:09:30;4.60;;;4.20;;
16543;SDS011;8384;47.996;7.786;2022-11-20T04:11:55;5.63;;;4.10;;
16543;SDS011;8384;47.996;7.786;2022-11-20T04:14:20;5.33;;;3.80;;
16543;SDS011;8384;47.996;7.786;2022-11-20T04:16:46;4.50;;;4.10;;
16543;SDS011;8384;47.996;7.786;2022-11-20T04:19:12;4.23;;;3.83;;
16543;SDS011;8384;47.996;7.786;2022-11-20T04:21:40;5.07;;;3.57;;
16543;SDS011;8384;47.996;7.786;2022-11-20T04:24:05;4.67;;;3.63;;
16543;SDS011;8384;47.996;7.786;2022-11-20T04:26:32;4.03;;;3.10;;
16543;SDS011;8384;47.996;7.786;2022-11-20T04:28:58;3.97;;;2.63;;
16543;SDS011;8384;47.996;7.786;2022-11-20T04:31:30;5.67;;;3.07;;
16543;SDS011;8384;47.996;7.786;2022-11-20T04:34:01;3.10;;;2.70;;
16543;SDS011;8384;47.996;7.786;2022-11-20T04:36:28;2.87;;;2.50;;
16543;SDS011;8384;47.996;7.786;2022-11-20T04:38:55;2.60;;;2.30;;
16543;SDS011;8384;47.996;7.786;2022-11-20T04:41:22;2.40;;;2.20;;
16543;SDS011;8384;47.996;7.786;2022-11-20T04:43:51;2.30;;;2.10;;
16543;SDS011;8384;47.996;7.786;2022-11-20T04:46:19;3.80;;;2.37;;
16543;SDS011;8384;47.996;7.786;2022-11-20T04:48:45;5.27;;;2.20;;
16543;SDS011;8384;47.996;7.786;2022-11-20T04:51:12;2.97;;;1.87;;
16543;SDS011;8384;47.996;7.786;2022-11-20T04:53:37;2.53;;;2.30;;
16543;SDS011;8384;47.996;7.786;2022-11-20T04:56:04;3.53;;;2.20;;
16543;SDS011;8384;47.996;7.786;2022-11-20T04:58:31;2.33;;;2.00;;
16543;SDS011;8384;47.996;7.786;2022-11-20T05:01:17;2.60;;;2.40;;
16543;SDS011;8384;47.996;7.786;2022-11-20T05:03:44;2.73;;;2.27;;
16543;SDS011;8384;47.996;7.786;2022-11-20T05:06:11;2.67;;;2.20;;
16543;SDS011;8384;47.996;7.786;2022-11-20T05:08:38;3.30;;;2.37;;
16543;SDS011;8384;47.996;7.786;2022-11-20T05:11:05;2.43;;;2.20;;
16543;SDS011;8384;47.996;7.786;2022-11-20T05:13:31;3.47;;;2.43;;
16543;SDS011;8384;47.996;7.786;2022-11-20T05:16:03;2.97;;;2.33;;
16543;SDS011;8384;47.996;7.786;2022-11-20T05:18:34;2.20;;;1.90;;
16543;SDS011;8384;47.996;7.786;2022-11-20T05:21:00;2.60;;;2.30;;
16543;SDS011;8384;47.996;7.786;2022-11-20T05:23:26;3.27;;;2.67;;
16543;SDS011;8384;47.996;7.786;2022-11-20T05:25:53;3.67;;;2.80;;
16543;SDS011;8384;47.996;7.786;2022-11-20T05:28:19;3.63;;;2.57;;
16543;SDS011;8384;47.996;7.786;2022-11-20T05:30:44;3.33;;;2.60;;
16543;SDS011;8384;47.996;7.786;2022-11-20T05:33:09;3.57;;;2.80;;
16543;SDS011;8384;47.996;7.786;2022-11-20T05:35:35;3.50;;;2.73;;
16543;SDS011;8384;47.996;7.786;2022-11-20T05:38:00;5.10;;;2.67;;
16543;SDS011;8384;47.996;7.786;2022-11-20T05:40:25;2.90;;;2.60;;
16543;SDS011;8384;47.996;7.786;2022-11-20T05:42:51;3.00;;;2.53;;
16543;SDS011;8384;47.996;7.786;2022-11-20T05:45:16;3.13;;;2.83;;
16543;SDS011;8384;47.996;7.786;2022-11-20T05:47:41;3.53;;;2.87;;
16543;SDS011;8384;47.996;7.786;2022-11-20T05:50:06;2.80;;;2.53;;
16543;SDS011;8384;47.996;7.786;2022-11-20T05:52:32;2.80;;;2.57;;
16543;SDS011;8384;47.996;7.786;2022-11-20T05:54:57;3.10;;;2.70;;
16543;SDS011;8384;47.996;7.786;2022-11-20T05:57:23;2.80;;;2.50;;
16543;SDS011;8384;47.996;7.786;2022-11-20T05:59:48;3.27;;;2.53;;
16543;SDS011;8384;47.996;7.786;2022-11-20T06:02:13;4.10;;;2.43;;
16543;SDS011;8384;47.996;7.786;2022-11-20T06:04:38;3.93;;;2.40;;
16543;SDS011;8384;47.996;7.786;2022-11-20T06:07:04;3.77;;;2.50;;
16543;SDS011;8384;47.996;7.786;2022-11-20T06:09:30;2.70;;;2.43;;
16543;SDS011;8384;47.996;7.786;2022-11-20T06:11:56;2.43;;;2.20;;
16543;SDS011;8384;47.996;7.786;2022-11-20T06:14:21;2.50;;;2.30;;
16543;SDS011;8384;47.996;7.786;2022-11-20T06:16:46;3.13;;;2.40;;
16543;SDS011;8384;47.996;7.786;2022-11-20T06:19:12;3.13;;;2.20;;
16543;SDS011;8384;47.996;7.786;2022-11-20T06:21:37;2.40;;;2.20;;
16543;SDS011;8384;47.996;7.786;2022-11-20T06:24:02;2.00;;;1.90;;
16543;SDS011;8384;47.996;7.786;2022-11-20T06:26:28;2.00;;;1.90;;
16543;SDS011;8384;47.996;7.786;2022-11-20T06:28:53;2.30;;;2.10;;
16543;SDS011;8384;47.996;7.786;2022-11-20T06:31:21;2.43;;;2.23;;
16543;SDS011;8384;47.996;7.786;2022-11-20T06:33:48;2.50;;;2.30;;
16543;SDS011;8384;47.996;7.786;2022-11-20T06:36:15;3.20;;;2.60;;
16543;SDS011;8384;47.996;7.786;2022-11-20T06:38:42;3.30;;;2.63;;
16543;SDS011;8384;47.996;7.786;2022-11-20T06:41:10;3.07;;;2.50;;
16543;SDS011;8384;47.996;7.786;2022-11-20T06:43:40;2.77;;;2.27;;
16543;SDS011;8384;47.996;7.786;2022-11-20T06:46:06;2.77;;;2.57;;
16543;SDS011;8384;47.996;7.786;2022-11-20T06:48:31;3.30;;;2.30;;
16543;SDS011;8384;47.996;7.786;2022-11-20T06:50:57;2.40;;;2.20;;
16543;SDS011;8384;47.996;7.786;2022-11-20T06:53:23;3.17;;;2.53;;
16543;SDS011;8384;47.996;7.786;2022-11-20T06:55:49;2.50;;;2.30;;
16543;SDS011;8384;47.996;7.786;2022-11-20T06:58:15;2.87;;;2.67;;
16543;SDS011;8384;47.996;7.786;2022-11-20T07:00:40;4.40;;;2.60;;
16543;SDS011;8384;47.996;7.786;2022-11-20T07:03:07;2.63;;;2.43;;
16543;SDS011;8384;47.996;7.786;2022-11-20T07:05:34;2.30;;;2.20;;
16543;SDS011;8384;47.996;7.786;2022-11-20T07:08:00;3.53;;;2.40;;
16543;SDS011;8384;47.996;7.786;2022-11-20T07:10:25;5.60;;;2.80;;
16543;SDS011;8384;47.996;7.786;2022-11-20T07:12:51;3.00;;;2.33;;
16543;SDS011;8384;47.996;7.786;2022-11-20T07:15:17;2.93;;;2.57;;
16543;SDS011;8384;47.996;7.786;2022-11-20T07:17:44;2.63;;;2.43;;
16543;SDS011;8384;47.996;7.786;2022-11-20T07:20:10;3.00;;;2.63;;
16543;SDS011;8384;47.996;7.786;2022-11-20T07:22:35;2.60;;;2.40;;
16543;SDS011;8384;47.996;7.786;2022-11-20T07:25:01;2.47;;;2.27;;
16543;SDS011;8384;47.996;7.786;2022-11-20T07:27:28;2.97;;;2.67;;
16543;SDS011;8384;47.996;7.786;2022-11-20T07:29:54;2.93;;;2.67;;
16543;SDS011;8384;47.996;7.786;2022-11-20T07:32:19;4.47;;;2.60;;
16543;SDS011;8384;47.996;7.786;2022-11-20T07:34:44;2.70;;;2.50;;
16543;SDS011;8384;47.996;7.786;2022-11-20T07:37:10;2.50;;;2.23;;
16543;SDS011;8384;47.996;7.786;2022-11-20T07:39:35;2.60;;;2.17;;
16543;SDS011;8384;47.996;7.786;2022-11-20T07:42:00;2.23;;;2.03;;
16543;SDS011;8384;47.996;7.786;2022-11-20T07:44:26;3.83;;;2.50;;
16543;SDS011;8384;47.996;7.786;2022-11-20T07:46:51;2.93;;;2.40;;
16543;SDS011;8384;47.996;7.786;2022-11-20T07:49:16;3.97;;;2.40;;
16543;SDS011;8384;47.996;7.786;2022-11-20T07:51:41;3.27;;;2.20;;
16543;SDS011;8384;47.996;7.786;2022-11-20T07:54:07;2.60;;;2.10;;
16543;SDS011;8384;47.996;7.786;2022-11-20T07:56:32;3.83;;;2.60;;
16543;SDS011;8384;47.996;7.786;2022-11-20T07:58:57;3.33;;;2.17;;
16543;SDS011;8384;47.996;7.786;2022-11-20T08:01:22;3.10;;;2.80;;
16543;SDS011;8384;47.996;7.786;2022-11-20T08:03:48;2.97;;;2.20;;
16543;SDS011;8384;47.996;7.786;2022-11-20T08:06:13;4.90;;;2.80;;
16543;SDS011;8384;47.996;7.786;2022-11-20T08:08:39;4.17;;;2.23;;
16543;SDS011;8384;47.996;7.786;2022-11-20T08:11:05;2.70;;;2.20;;
16543;SDS011;8384;47.996;7.786;2022-11-20T08:13:49;4.27;;;2.67;;
16543;SDS011;8384;47.996;7.786;2022-11-20T08:16:33;2.53;;;2.30;;
16543;SDS011;8384;47.996;7.786;2022-11-20T08:18:58;3.30;;;2.63;;
16543;SDS011;8384;47.996;7.786;2022-11-20T08:21:23;3.17;;;2.47;;
16543;SDS011;8384;47.996;7.786;2022-11-20T08:23:49;3.97;;;2.30;;
16543;SDS011;8384;47.996;7.786;2022-11-20T08:26:14;3.17;;;2.10;;
16543;SDS011;8384;47.996;7.786;2022-11-20T08:28:40;2.30;;;2.10;;
16543;SDS011;8384;47.996;7.786;2022-11-20T08:31:05;4.07;;;2.07;;
16543;SDS011;8384;47.996;7.786;2022-11-20T08:33:30;4.13;;;2.30;;
16543;SDS011;8384;47.996;7.786;2022-11-20T08:35:58;2.63;;;2.37;;
16543;SDS011;8384;47.996;7.786;2022-11-20T08:38:27;2.80;;;2.30;;
16543;SDS011;8384;47.996;7.786;2022-11-20T08:40:52;2.73;;;2.20;;
16543;SDS011;8384;47.996;7.786;2022-11-20T08:43:40;2.80;;;2.13;;
16543;SDS011;8384;47.996;7.786;2022-11-20T08:46:05;3.43;;;2.00;;
16543;SDS011;8384;47.996;7.786;2022-11-20T08:48:30;2.80;;;2.10;;
16543;SDS011;8384;47.996;7.786;2022-11-20T08:50:57;3.37;;;2.13;;
16543;SDS011;8384;47.996;7.786;2022-11-20T08:53:23;2.60;;;2.30;;
16543;SDS011;8384;47.996;7.786;2022-11-20T08:55:48;2.63;;;2.03;;
16543;SDS011;8384;47.996;7.786;2022-11-20T08:58:14;2.50;;;1.93;;
16543;SDS011;8384;47.996;7.786;2022-11-20T09:00:39;3.20;;;1.80;;
16543;SDS011;8384;47.996;7.786;2022-11-20T09:03:04;2.67;;;2.13;;
16543;SDS011;8384;47.996;7.786;2022-11-20T09:05:29;2.20;;;1.97;;
16543;SDS011;8384;47.996;7.786;2022-11-20T09:07:58;3.57;;;2.50;;
16543;SDS011;8384;47.996;7.786;2022-11-20T09:10:25;2.60;;;2.40;;
16543;SDS011;8384;47.996;7.786;2022-11-20T09:12:51;3.70;;;2.17;;
16543;SDS011;8384;47.996;7.786;2022-11-20T09:15:17;4.57;;;2.23;;
16543;SDS011;8384;47.996;7.786;2022-11-20T09:17:49;3.40;;;2.57;;
16543;SDS011;8384;47.996;7.786;2022-11-20T09:20:18;4.00;;;3.03;;
16543;SDS011;8384;47.996;7.786;2022-11-20T09:22:44;2.50;;;2.30;;
16543;SDS011;8384;47.996;7.786;2022-11-20T09:25:09;3.17;;;2.70;;
16543;SDS011;8384;47.996;7.786;2022-11-20T09:27:35;3.37;;;2.63;;
16543;SDS011;8384;47.996;7.786;2022-11-20T09:30:00;3.27;;;2.30;;
16543;SDS011;8384;47.996;7.786;2022-11-20T09:32:26;2.67;;;2.17;;
16543;SDS011;8384;47.996;7.786;2022-11-20T09:34:51;2.87;;;2.57;;
16543;SDS011;8384;47.996;7.786;2022-11-20T09:37:16;3.33;;;2.20;;
16543;SDS011;8384;47.996;7.786;2022-11-20T09:39:42;3.00;;;2.33;;
16543;SDS011;8384;47.996;7.786;2022-11-20T09:50:36;2.43;;;2.20;;
16543;SDS011;8384;47.996;7.786;2022-11-20T09:56:00;3.63;;;2.50;;
16543;SDS011;8384;47.996;7.786;2022-11-20T09:58:35;4.47;;;2.43;;
16543;SDS011;8384;47.996;7.786;2022-11-20T10:01:11;3.40;;;2.57;;
16543;SDS011;8384;47.996;7.786;2022-11-20T10:06:15;3.70;;;2.57;;
16543;SDS011;8384;47.996;7.786;2022-11-20T10:08:45;4.07;;;2.90;;
16543;SDS011;8384;47.996;7.786;2022-11-20T10:14:18;2.73;;;2.53;;
16543;SDS011;8384;47.996;7.786;2022-11-20T10:22:44;4.40;;;3.00;;
16543;SDS011;8384;47.996;7.786;2022-11-20T10:25:13;3.93;;;3.00;;
16543;SDS011;8384;47.996;7.786;2022-11-20T10:27:43;3.60;;;2.97;;
16543;SDS011;8384;47.996;7.786;2022-11-20T10:30:13;3.83;;;2.80;;
16543;SDS011;8384;47.996;7.786;2022-11-20T10:32:42;3.17;;;2.87;;
16543;SDS011;8384;47.996;7.786;2022-11-20T10:35:23;4.07;;;3.23;;
16543;SDS011;8384;47.996;7.786;2022-11-20T10:38:39;4.93;;;2.93;;
16543;SDS011;8384;47.996;7.786;2022-11-20T10:40:46;3.83;;;3.43;;
16543;SDS011;8384;47.996;7.786;2022-11-20T10:45:57;3.57;;;2.80;;
16543;SDS011;8384;47.996;7.786;2022-11-20T10:48:27;3.63;;;2.90;;
16543;SDS011;8384;47.996;7.786;2022-11-20T10:51:02;3.77;;;3.00;;
16543;SDS011;8384;47.996;7.786;2022-11-20T10:56:17;4.13;;;3.10;;
16543;SDS011;8384;47.996;7.786;2022-11-20T10:59:21;4.17;;;2.90;;
16543;SDS011;8384;47.996;7.786;2022-11-20T11:02:12;4.77;;;3.00;;
16543;SDS011;8384;47.996;7.786;2022-11-20T11:04:40;3.07;;;2.60;;
16543;SDS011;8384;47.996;7.786;2022-11-20T11:07:12;3.40;;;2.40;;
16543;SDS011;8384;47.996;7.786;2022-11-20T11:09:43;3.73;;;2.80;;
16543;SDS011;8384;47.996;7.786;2022-11-20T11:12:12;3.67;;;2.50;;
16543;SDS011;8384;47.996;7.786;2022-11-20T11:14:56;4.63;;;3.10;;
16543;SDS011;8384;47.996;7.786;2022-11-20T11:17:29;4.33;;;2.80;;
16543;SDS011;8384;47.996;7.786;2022-11-20T11:20:15;3.00;;;2.70;;
16543;SDS011;8384;47.996;7.786;2022-11-20T11:22:44;2.70;;;2.50;;
16543;SDS011;8384;47.996;7.786;2022-11-20T11:25:24;4.57;;;2.30;;
16543;SDS011;8384;47.996;7.786;2022-11-20T11:27:52;2.63;;;2.40;;
16543;SDS011;8384;47.996;7.786;2022-11-20T11:30:20;3.60;;;2.70;;
16543;SDS011;8384;47.996;7.786;2022-11-20T11:32:47;3.00;;;2.17;;
16543;SDS011;8384;47.996;7.786;2022-11-20T11:35:20;4.33;;;2.40;;
16543;SDS011;8384;47.996;7.786;2022-11-20T11:37:48;3.40;;;2.30;;
16543;SDS011;8384;47.996;7.786;2022-11-20T11:40:14;2.80;;;2.13;;
16543;SDS011;8384;47.996;7.786;2022-11-20T11:42:44;3.67;;;2.30;;
16543;SDS011;8384;47.996;7.786;2022-11-20T11:45:15;3.93;;;2.67;;
16543;SDS011;8384;47.996;7.786;2022-11-20T11:47:47;3.30;;;1.93;;
16543;SDS011;8384;47.996;7.786;2022-11-20T11:50:26;3.00;;;2.20;;
16543;SDS011;8384;47.996;7.786;2022-11-20T11:57:54;2.67;;;1.80;;
16543;SDS011;8384;47.996;7.786;2022-11-20T12:00:29;1.63;;;1.40;;
16543;SDS011;8384;47.996;7.786;2022-11-20T12:05:51;1.57;;;1.20;;
16543;SDS011;8384;47.996;7.786;2022-11-20T12:11:11;1.70;;;1.40;;
16543;SDS011;8384;47.996;7.786;2022-11-20T12:16:15;1.83;;;1.37;;
16543;SDS011;8384;47.996;7.786;2022-11-20T12:18:43;1.47;;;1.30;;
16543;SDS011;8384;47.996;7.786;2022-11-20T12:36:56;2.73;;;1.50;;
16543;SDS011;8384;47.996;7.786;2022-11-20T12:39:46;2.00;;;1.50;;
16543;SDS011;8384;47.996;7.786;2022-11-20T12:42:37;3.33;;;1.40;;
16543;SDS011;8384;47.996;7.786;2022-11-20T12:48:25;3.10;;;1.60;;
16543;SDS011;8384;47.996;7.786;2022-11-20T12:54:26;2.17;;;1.53;;
16543;SDS011;8384;47.996;7.786;2022-11-20T13:08:34;4.83;;;2.23;;
16543;SDS011;8384;47.996;7.786;2022-11-20T13:16:37;2.87;;;1.47;;
16543;SDS011;8384;47.996;7.786;2022-11-20T13:19:14;2.50;;;1.30;;
16543;SDS011;8384;47.996;7.786;2022-11-20T13:21:43;1.70;;;1.40;;
16543;SDS011;8384;47.996;7.786;2022-11-20T13:24:25;2.40;;;1.67;;
16543;SDS011;8384;47.996;7.786;2022-11-20T13:29:30;2.07;;;1.40;;
16543;SDS011;8384;47.996;7.786;2022-11-20T13:32:06;1.83;;;1.40;;
16543;SDS011;8384;47.996;7.786;2022-11-20T13:34:50;2.67;;;1.40;;
16543;SDS011;8384;47.996;7.786;2022-11-20T13:42:54;2.43;;;1.00;;
16543;SDS011;8384;47.996;7.786;2022-11-20T13:45:29;2.23;;;1.20;;
16543;SDS011;8384;47.996;7.786;2022-11-20T13:47:56;2.83;;;1.20;;
16543;SDS011;8384;47.996;7.786;2022-11-20T13:50:30;1.93;;;1.23;;
16543;SDS011;8384;47.996;7.786;2022-11-20T13:53:09;2.50;;;1.40;;
16543;SDS011;8384;47.996;7.786;2022-11-20T13:55:54;3.17;;;1.73;;
16543;SDS011;8384;47.996;7.786;2022-11-20T13:58:24;2.40;;;1.60;;
16543;SDS011;8384;47.996;7.786;2022-11-20T14:01:05;2.97;;;1.50;;
16543;SDS011;8384;47.996;7.786;2022-11-20T14:03:34;3.73;;;2.37;;
16543;SDS011;8384;47.996;7.786;2022-11-20T14:06:01;4.53;;;1.47;;
16543;SDS011;8384;47.996;7.786;2022-11-20T14:11:13;2.90;;;1.43;;
16543;SDS011;8384;47.996;7.786;2022-11-20T14:13:54;3.67;;;1.50;;
16543;SDS011;8384;47.996;7.786;2022-11-20T14:16:22;5.20;;;1.40;;
16543;SDS011;8384;47.996;7.786;2022-11-20T14:18:48;3.03;;;1.77;;
16543;SDS011;8384;47.996;7.786;2022-11-20T14:21:24;5.17;;;1.63;;
16543;SDS011;8384;47.996;7.786;2022-11-20T14:24:33;1.70;;;1.50;;
16543;SDS011;8384;47.996;7.786;2022-11-20T14:26:44;3.17;;;1.60;;
16543;SDS011;8384;47.996;7.786;2022-11-20T14:31:47;2.57;;;1.70;;
16543;SDS011;8384;47.996;7.786;2022-11-20T14:34:25;3.73;;;1.80;;
16543;SDS011;8384;47.996;7.786;2022-11-20T14:37:39;3.27;;;1.70;;
16543;SDS011;8384;47.996;7.786;2022-11-20T14:39:48;2.00;;;1.13;;
16543;SDS011;8384;47.996;7.786;2022-11-20T14:42:21;3.20;;;1.30;;
16543;SDS011;8384;47.996;7.786;2022-11-20T14:44:48;2.57;;;1.57;;
16543;SDS011;8384;47.996;7.786;2022-11-20T14:47:17;5.00;;;1.40;;
16543;SDS011;8384;47.996;7.786;2022-11-20T14:49:45;3.07;;;1.50;;
16543;SDS011;8384;47.996;7.786;2022-11-20T14:52:15;1.67;;;1.43;;
16543;SDS011;8384;47.996;7.786;2022-11-20T14:54:52;3.33;;;1.33;;
16543;SDS011;8384;47.996;7.786;2022-11-20T15:00:07;2.73;;;1.30;;
16543;SDS011;8384;47.996;7.786;2022-11-20T15:02:45;2.00;;;1.50;;
16543;SDS011;8384;47.996;7.786;2022-11-20T15:05:12;4.90;;;1.67;;
16543;SDS011;8384;47.996;7.786;2022-11-20T15:07:40;3.37;;;1.37;;
16543;SDS011;8384;47.996;7.786;2022-11-20T15:10:21;2.80;;;1.50;;
16543;SDS011;8384;47.996;7.786;2022-11-20T15:12:52;3.63;;;1.40;;
16543;SDS011;8384;47.996;7.786;2022-11-20T15:15:31;2.33;;;1.40;;
16543;SDS011;8384;47.996;7.786;2022-11-20T15:18:04;3.17;;;1.13;;
16543;SDS011;8384;47.996;7.786;2022-11-20T15:20:31;2.43;;;1.40;;
16543;SDS011;8384;47.996;7.786;2022-11-20T15:22:57;3.80;;;1.50;;
16543;SDS011;8384;47.996;7.786;2022-11-20T15:25:23;1.50;;;1.23;;
16543;SDS011;8384;47.996;7.786;2022-11-20T15:27:50;4.63;;;1.30;;
16543;SDS011;8384;47.996;7.786;2022-11-20T15:30:18;3.90;;;1.40;;
16543;SDS011;8384;47.996;7.786;2022-11-20T15:32:45;1.83;;;1.30;;
16543;SDS011;8384;47.996;7.786;2022-11-20T15:35:11;3.47;;;2.10;;
16543;SDS011;8384;47.996;7.786;2022-11-20T15:37:37;4.40;;;2.53;;
16543;SDS011;8384;47.996;7.786;2022-11-20T15:40:03;4.00;;;2.10;;
16543;SDS011;8384;47.996;7.786;2022-11-20T15:42:30;3.17;;;2.10;;
16543;SDS011;8384;47.996;7.786;2022-11-20T15:44:55;4.50;;;3.80;;
16543;SDS011;8384;47.996;7.786;2022-11-20T15:47:21;4.83;;;2.90;;
16543;SDS011;8384;47.996;7.786;2022-11-20T15:49:52;5.67;;;2.83;;
16543;SDS011;8384;47.996;7.786;2022-11-20T15:52:17;5.30;;;3.40;;
16543;SDS011;8384;47.996;7.786;2022-11-20T15:54:42;2.90;;;2.03;;
16543;SDS011;8384;47.996;7.786;2022-11-20T15:57:08;2.87;;;1.87;;
16543;SDS011;8384;47.996;7.786;2022-11-20T15:59:33;2.23;;;1.47;;
16543;SDS011;8384;47.996;7.786;2022-11-20T16:01:59;2.13;;;1.80;;
16543;SDS011;8384;47.996;7.786;2022-11-20T16:04:24;1.63;;;1.33;;
16543;SDS011;8384;47.996;7.786;2022-11-20T16:06:50;2.40;;;1.60;;
16543;SDS011;8384;47.996;7.786;2022-11-20T16:09:15;1.77;;;1.20;;
16543;SDS011;8384;47.996;7.786;2022-11-20T16:11:40;2.33;;;1.33;;
16543;SDS011;8384;47.996;7.786;2022-11-20T16:14:05;2.23;;;1.30;;
16543;SDS011;8384;47.996;7.786;2022-11-20T16:16:50;3.17;;;1.30;;
16543;SDS011;8384;47.996;7.786;2022-11-20T16:19:16;2.70;;;1.07;;
16543;SDS011;8384;47.996;7.786;2022-11-20T16:21:42;1.90;;;1.07;;
16543;SDS011;8384;47.996;7.786;2022-11-20T16:24:09;1.87;;;1.30;;
16543;SDS011;8384;47.996;7.786;2022-11-20T16:26:37;1.93;;;1.40;;
16543;SDS011;8384;47.996;7.786;2022-11-20T16:29:05;1.10;;;1.00;;
16543;SDS011;8384;47.996;7.786;2022-11-20T16:31:31;1.90;;;1.17;;
16543;SDS011;8384;47.996;7.786;2022-11-20T16:33:58;2.33;;;1.20;;
16543;SDS011;8384;47.996;7.786;2022-11-20T16:36:26;2.10;;;0.97;;
16543;SDS011;8384;47.996;7.786;2022-11-20T16:38:53;1.33;;;1.00;;
16543;SDS011;8384;47.996;7.786;2022-11-20T16:41:22;1.33;;;1.00;;
16543;SDS011;8384;47.996;7.786;2022-11-20T16:43:55;1.70;;;1.10;;
16543;SDS011;8384;47.996;7.786;2022-11-20T16:46:22;2.07;;;0.93;;
16543;SDS011;8384;47.996;7.786;2022-11-20T16:48:52;2.37;;;1.77;;
16543;SDS011;8384;47.996;7.786;2022-11-20T16:51:22;1.20;;;1.10;;